sensor_id;sensor_type;location;lat;lon;timestamp;P1;durP1;ratioP1;P2;durP2;ratioP2
24677;SDS011;12800;53.094;8.778;2023-01-26T00:01:06;43.70;;;23.23;;
24677;SDS011;12800;53.094;8.778;2023-01-26T00:03:33;44.13;;;25.07;;
24677;SDS011;12800;53.094;8.778;2023-01-26T00:06:06;43.40;;;23.63;;
24677;SDS011;12800;53.094;8.778;2023-01-26T00:08:40;43.93;;;24.27;;
24677;SDS011;12800;53.094;8.778;2023-01-26T00:11:09;44.07;;;23.27;;
24677;SDS011;12800;53.094;8.778;2023-01-26T00:13:35;46.03;;;23.90;;
24677;SDS011;12800;53.094;8.778;2023-01-26T00:16:01;42.73;;;23.07;;
24677;SDS011;12800;53.094;8.778;2023-01-26T00:18:28;43.80;;;23.20;;
24677;SDS011;12800;53.094;8.778;2023-01-26T00:20:57;42.40;;;24.43;;
24677;SDS011;12800;53.094;8.778;2023-01-26T00:23:24;41.33;;;23.27;;
24677;SDS011;12800;53.094;8.778;2023-01-26T00:25:50;40.67;;;21.90;;
24677;SDS011;12800;53.094;8.778;2023-01-26T00:28:15;43.17;;;24.20;;
24677;SDS011;12800;53.094;8.778;2023-01-26T00:30:41;41.50;;;22.07;;
24677;SDS011;12800;53.094;8.778;2023-01-26T00:33:06;40.40;;;22.40;;
24677;SDS011;12800;53.094;8.778;2023-01-26T00:35:32;39.43;;;20.20;;
24677;SDS011;12800;53.094;8.778;2023-01-26T00:37:58;47.53;;;23.60;;
24677;SDS011;12800;53.094;8.778;2023-01-26T00:40:23;45.13;;;22.03;;
24677;SDS011;12800;53.094;8.778;2023-01-26T00:42:49;38.30;;;21.53;;
24677;SDS011;12800;53.094;8.778;2023-01-26T00:45:14;45.13;;;24.07;;
24677;SDS011;12800;53.094;8.778;2023-01-26T00:47:40;44.30;;;22.20;;
24677;SDS011;12800;53.094;8.778;2023-01-26T00:50:06;43.17;;;22.90;;
24677;SDS011;12800;53.094;8.778;2023-01-26T00:52:32;48.43;;;24.17;;
24677;SDS011;12800;53.094;8.778;2023-01-26T00:54:57;41.73;;;22.70;;
24677;SDS011;12800;53.094;8.778;2023-01-26T00:57:23;42.30;;;21.83;;
24677;SDS011;12800;53.094;8.778;2023-01-26T00:59:49;40.87;;;22.43;;
24677;SDS011;12800;53.094;8.778;2023-01-26T01:02:14;39.23;;;21.43;;
24677;SDS011;12800;53.094;8.778;2023-01-26T01:04:40;42.57;;;22.70;;
24677;SDS011;12800;53.094;8.778;2023-01-26T01:07:05;94.57;;;50.47;;
24677;SDS011;12800;53.094;8.778;2023-01-26T01:09:31;53.57;;;27.50;;
24677;SDS011;12800;53.094;8.778;2023-01-26T01:11:56;41.53;;;22.30;;
24677;SDS011;12800;53.094;8.778;2023-01-26T01:14:22;39.60;;;21.60;;
24677;SDS011;12800;53.094;8.778;2023-01-26T01:16:48;42.40;;;22.77;;
24677;SDS011;12800;53.094;8.778;2023-01-26T01:19:14;47.97;;;24.43;;
24677;SDS011;12800;53.094;8.778;2023-01-26T01:21:41;45.43;;;22.97;;
24677;SDS011;12800;53.094;8.778;2023-01-26T01:24:07;41.27;;;22.17;;
24677;SDS011;12800;53.094;8.778;2023-01-26T01:26:33;41.57;;;22.10;;
24677;SDS011;12800;53.094;8.778;2023-01-26T01:28:58;45.13;;;23.40;;
24677;SDS011;12800;53.094;8.778;2023-01-26T01:31:24;45.80;;;23.17;;
24677;SDS011;12800;53.094;8.778;2023-01-26T01:33:50;42.00;;;21.47;;
24677;SDS011;12800;53.094;8.778;2023-01-26T01:36:17;40.97;;;22.40;;
24677;SDS011;12800;53.094;8.778;2023-01-26T01:38:43;41.47;;;21.30;;
24677;SDS011;12800;53.094;8.778;2023-01-26T01:41:10;39.10;;;20.47;;
24677;SDS011;12800;53.094;8.778;2023-01-26T01:43:36;40.57;;;22.33;;
24677;SDS011;12800;53.094;8.778;2023-01-26T01:46:04;40.97;;;21.73;;
24677;SDS011;12800;53.094;8.778;2023-01-26T01:48:54;39.63;;;21.53;;
24677;SDS011;12800;53.094;8.778;2023-01-26T01:51:30;43.43;;;22.83;;
24677;SDS011;12800;53.094;8.778;2023-01-26T01:54:01;39.77;;;20.90;;
24677;SDS011;12800;53.094;8.778;2023-01-26T01:56:31;43.67;;;22.33;;
24677;SDS011;12800;53.094;8.778;2023-01-26T01:58:59;39.40;;;21.00;;
24677;SDS011;12800;53.094;8.778;2023-01-26T02:01:26;40.10;;;21.53;;
24677;SDS011;12800;53.094;8.778;2023-01-26T02:03:53;37.60;;;21.20;;
24677;SDS011;12800;53.094;8.778;2023-01-26T02:06:28;38.63;;;20.90;;
24677;SDS011;12800;53.094;8.778;2023-01-26T02:09:07;45.80;;;24.33;;
24677;SDS011;12800;53.094;8.778;2023-01-26T02:12:03;73.20;;;38.20;;
24677;SDS011;12800;53.094;8.778;2023-01-26T02:14:32;42.90;;;23.57;;
24677;SDS011;12800;53.094;8.778;2023-01-26T02:16:58;44.00;;;23.07;;
24677;SDS011;12800;53.094;8.778;2023-01-26T02:19:32;43.83;;;21.83;;
24677;SDS011;12800;53.094;8.778;2023-01-26T02:22:22;43.17;;;22.13;;
24677;SDS011;12800;53.094;8.778;2023-01-26T02:24:54;46.33;;;23.83;;
24677;SDS011;12800;53.094;8.778;2023-01-26T02:27:24;48.03;;;24.03;;
24677;SDS011;12800;53.094;8.778;2023-01-26T02:29:51;43.90;;;22.77;;
24677;SDS011;12800;53.094;8.778;2023-01-26T02:32:17;43.73;;;22.97;;
24677;SDS011;12800;53.094;8.778;2023-01-26T02:34:43;43.20;;;22.67;;
24677;SDS011;12800;53.094;8.778;2023-01-26T02:37:12;41.90;;;22.50;;
24677;SDS011;12800;53.094;8.778;2023-01-26T02:42:09;45.03;;;23.77;;
24677;SDS011;12800;53.094;8.778;2023-01-26T02:44:53;42.77;;;22.67;;
24677;SDS011;12800;53.094;8.778;2023-01-26T02:47:19;41.77;;;22.37;;
24677;SDS011;12800;53.094;8.778;2023-01-26T02:49:45;42.63;;;21.57;;
24677;SDS011;12800;53.094;8.778;2023-01-26T02:52:11;45.70;;;23.57;;
24677;SDS011;12800;53.094;8.778;2023-01-26T02:54:37;44.10;;;22.37;;
24677;SDS011;12800;53.094;8.778;2023-01-26T02:57:21;41.90;;;21.43;;
24677;SDS011;12800;53.094;8.778;2023-01-26T02:59:46;40.47;;;21.20;;
24677;SDS011;12800;53.094;8.778;2023-01-26T03:02:12;43.50;;;22.43;;
24677;SDS011;12800;53.094;8.778;2023-01-26T03:04:39;39.57;;;22.83;;
24677;SDS011;12800;53.094;8.778;2023-01-26T03:07:06;44.47;;;22.30;;
24677;SDS011;12800;53.094;8.778;2023-01-26T03:09:31;42.33;;;21.67;;
24677;SDS011;12800;53.094;8.778;2023-01-26T03:11:57;44.07;;;23.33;;
24677;SDS011;12800;53.094;8.778;2023-01-26T03:14:22;44.10;;;22.33;;
24677;SDS011;12800;53.094;8.778;2023-01-26T03:16:48;43.83;;;21.77;;
24677;SDS011;12800;53.094;8.778;2023-01-26T03:19:14;44.93;;;22.83;;
24677;SDS011;12800;53.094;8.778;2023-01-26T03:21:58;43.93;;;21.80;;
24677;SDS011;12800;53.094;8.778;2023-01-26T03:24:43;46.63;;;22.97;;
24677;SDS011;12800;53.094;8.778;2023-01-26T03:27:27;39.97;;;22.00;;
24677;SDS011;12800;53.094;8.778;2023-01-26T03:29:57;44.97;;;22.40;;
24677;SDS011;12800;53.094;8.778;2023-01-26T03:32:23;44.40;;;21.37;;
24677;SDS011;12800;53.094;8.778;2023-01-26T03:34:49;43.33;;;21.47;;
24677;SDS011;12800;53.094;8.778;2023-01-26T03:37:15;44.33;;;22.13;;
24677;SDS011;12800;53.094;8.778;2023-01-26T03:39:46;40.00;;;21.57;;
24677;SDS011;12800;53.094;8.778;2023-01-26T03:42:29;44.33;;;22.60;;
24677;SDS011;12800;53.094;8.778;2023-01-26T03:45:13;42.17;;;21.63;;
24677;SDS011;12800;53.094;8.778;2023-01-26T03:48:07;42.53;;;20.77;;
24677;SDS011;12800;53.094;8.778;2023-01-26T03:50:53;39.50;;;21.57;;
24677;SDS011;12800;53.094;8.778;2023-01-26T03:53:37;42.10;;;21.40;;
24677;SDS011;12800;53.094;8.778;2023-01-26T03:56:21;43.67;;;21.70;;
24677;SDS011;12800;53.094;8.778;2023-01-26T03:58:56;40.83;;;21.50;;
24677;SDS011;12800;53.094;8.778;2023-01-26T04:01:40;43.47;;;22.33;;
24677;SDS011;12800;53.094;8.778;2023-01-26T04:04:26;42.00;;;22.17;;
24677;SDS011;12800;53.094;8.778;2023-01-26T04:07:10;45.60;;;21.63;;
24677;SDS011;12800;53.094;8.778;2023-01-26T04:09:54;42.47;;;21.37;;
24677;SDS011;12800;53.094;8.778;2023-01-26T04:12:19;43.37;;;21.50;;
24677;SDS011;12800;53.094;8.778;2023-01-26T04:14:45;42.40;;;21.13;;
24677;SDS011;12800;53.094;8.778;2023-01-26T04:17:29;48.30;;;21.93;;
24677;SDS011;12800;53.094;8.778;2023-01-26T04:20:13;42.97;;;22.17;;
24677;SDS011;12800;53.094;8.778;2023-01-26T04:22:58;44.63;;;21.63;;
24677;SDS011;12800;53.094;8.778;2023-01-26T04:25:23;45.93;;;22.70;;
24677;SDS011;12800;53.094;8.778;2023-01-26T04:27:49;46.00;;;23.27;;
24677;SDS011;12800;53.094;8.778;2023-01-26T04:30:15;43.87;;;20.83;;
24677;SDS011;12800;53.094;8.778;2023-01-26T04:32:41;39.40;;;21.60;;
24677;SDS011;12800;53.094;8.778;2023-01-26T04:35:08;42.00;;;19.73;;
24677;SDS011;12800;53.094;8.778;2023-01-26T04:37:34;43.87;;;20.87;;
24677;SDS011;12800;53.094;8.778;2023-01-26T04:40:00;43.10;;;21.10;;
24677;SDS011;12800;53.094;8.778;2023-01-26T04:42:26;42.93;;;21.33;;
24677;SDS011;12800;53.094;8.778;2023-01-26T04:44:52;43.37;;;19.37;;
24677;SDS011;12800;53.094;8.778;2023-01-26T04:47:18;41.23;;;20.97;;
24677;SDS011;12800;53.094;8.778;2023-01-26T04:49:47;37.30;;;19.90;;
24677;SDS011;12800;53.094;8.778;2023-01-26T04:52:13;40.10;;;19.13;;
24677;SDS011;12800;53.094;8.778;2023-01-26T04:54:39;36.43;;;18.93;;
24677;SDS011;12800;53.094;8.778;2023-01-26T04:57:05;37.57;;;19.10;;
24677;SDS011;12800;53.094;8.778;2023-01-26T04:59:31;36.07;;;19.53;;
24677;SDS011;12800;53.094;8.778;2023-01-26T05:01:57;37.83;;;18.97;;
24677;SDS011;12800;53.094;8.778;2023-01-26T05:04:22;36.83;;;18.67;;
24677;SDS011;12800;53.094;8.778;2023-01-26T05:06:48;37.43;;;18.73;;
24677;SDS011;12800;53.094;8.778;2023-01-26T05:09:13;38.10;;;19.23;;
24677;SDS011;12800;53.094;8.778;2023-01-26T05:11:39;42.47;;;19.67;;
24677;SDS011;12800;53.094;8.778;2023-01-26T05:14:05;36.67;;;18.30;;
24677;SDS011;12800;53.094;8.778;2023-01-26T05:16:30;37.40;;;19.37;;
24677;SDS011;12800;53.094;8.778;2023-01-26T05:18:56;38.17;;;19.37;;
24677;SDS011;12800;53.094;8.778;2023-01-26T05:21:22;36.60;;;16.93;;
24677;SDS011;12800;53.094;8.778;2023-01-26T05:23:51;36.57;;;17.77;;
24677;SDS011;12800;53.094;8.778;2023-01-26T05:26:18;34.00;;;17.80;;
24677;SDS011;12800;53.094;8.778;2023-01-26T05:28:43;34.57;;;17.27;;
24677;SDS011;12800;53.094;8.778;2023-01-26T05:31:09;32.87;;;17.03;;
24677;SDS011;12800;53.094;8.778;2023-01-26T05:33:35;35.90;;;17.83;;
24677;SDS011;12800;53.094;8.778;2023-01-26T05:36:04;39.20;;;18.30;;
24677;SDS011;12800;53.094;8.778;2023-01-26T05:38:31;32.23;;;16.90;;
24677;SDS011;12800;53.094;8.778;2023-01-26T05:40:57;35.40;;;17.60;;
24677;SDS011;12800;53.094;8.778;2023-01-26T05:43:23;32.80;;;17.63;;
24677;SDS011;12800;53.094;8.778;2023-01-26T05:45:49;31.00;;;16.87;;
24677;SDS011;12800;53.094;8.778;2023-01-26T05:48:15;30.83;;;16.70;;
24677;SDS011;12800;53.094;8.778;2023-01-26T05:50:40;29.17;;;15.97;;
24677;SDS011;12800;53.094;8.778;2023-01-26T05:53:06;28.47;;;14.73;;
24677;SDS011;12800;53.094;8.778;2023-01-26T05:55:31;30.07;;;16.03;;
24677;SDS011;12800;53.094;8.778;2023-01-26T05:57:57;27.67;;;13.77;;
24677;SDS011;12800;53.094;8.778;2023-01-26T06:00:23;28.33;;;14.50;;
24677;SDS011;12800;53.094;8.778;2023-01-26T06:02:49;30.47;;;16.53;;
24677;SDS011;12800;53.094;8.778;2023-01-26T06:05:14;30.50;;;15.77;;
24677;SDS011;12800;53.094;8.778;2023-01-26T06:07:40;29.67;;;15.23;;
24677;SDS011;12800;53.094;8.778;2023-01-26T06:10:06;24.40;;;13.60;;
24677;SDS011;12800;53.094;8.778;2023-01-26T06:12:32;23.90;;;12.97;;
24677;SDS011;12800;53.094;8.778;2023-01-26T06:15:00;25.03;;;12.67;;
24677;SDS011;12800;53.094;8.778;2023-01-26T06:17:26;23.73;;;12.57;;
24677;SDS011;12800;53.094;8.778;2023-01-26T06:19:52;22.73;;;12.60;;
24677;SDS011;12800;53.094;8.778;2023-01-26T06:22:18;25.53;;;12.97;;
24677;SDS011;12800;53.094;8.778;2023-01-26T06:24:43;22.23;;;12.33;;
24677;SDS011;12800;53.094;8.778;2023-01-26T06:27:14;24.13;;;12.57;;
24677;SDS011;12800;53.094;8.778;2023-01-26T06:29:40;21.60;;;12.63;;
24677;SDS011;12800;53.094;8.778;2023-01-26T06:32:08;24.00;;;12.83;;
24677;SDS011;12800;53.094;8.778;2023-01-26T06:34:35;24.73;;;13.53;;
24677;SDS011;12800;53.094;8.778;2023-01-26T06:37:01;23.43;;;12.67;;
24677;SDS011;12800;53.094;8.778;2023-01-26T06:39:26;24.53;;;11.83;;
24677;SDS011;12800;53.094;8.778;2023-01-26T06:41:52;18.73;;;10.37;;
24677;SDS011;12800;53.094;8.778;2023-01-26T06:44:17;19.57;;;11.07;;
24677;SDS011;12800;53.094;8.778;2023-01-26T06:46:43;20.20;;;10.80;;
24677;SDS011;12800;53.094;8.778;2023-01-26T06:49:09;19.60;;;11.00;;
24677;SDS011;12800;53.094;8.778;2023-01-26T06:54:03;17.77;;;9.97;;
24677;SDS011;12800;53.094;8.778;2023-01-26T06:56:28;19.63;;;9.83;;
24677;SDS011;12800;53.094;8.778;2023-01-26T06:58:54;19.07;;;10.33;;
24677;SDS011;12800;53.094;8.778;2023-01-26T07:01:21;16.43;;;9.03;;
24677;SDS011;12800;53.094;8.778;2023-01-26T07:03:48;18.87;;;9.73;;
24677;SDS011;12800;53.094;8.778;2023-01-26T07:06:15;17.57;;;9.80;;
24677;SDS011;12800;53.094;8.778;2023-01-26T07:08:41;18.73;;;10.20;;
24677;SDS011;12800;53.094;8.778;2023-01-26T07:11:07;17.03;;;8.90;;
24677;SDS011;12800;53.094;8.778;2023-01-26T07:13:34;15.33;;;9.03;;
24677;SDS011;12800;53.094;8.778;2023-01-26T07:16:00;16.30;;;9.07;;
24677;SDS011;12800;53.094;8.778;2023-01-26T07:18:26;17.37;;;9.63;;
24677;SDS011;12800;53.094;8.778;2023-01-26T07:20:51;18.10;;;9.73;;
24677;SDS011;12800;53.094;8.778;2023-01-26T07:23:17;16.60;;;9.87;;
24677;SDS011;12800;53.094;8.778;2023-01-26T07:25:42;16.83;;;9.03;;
24677;SDS011;12800;53.094;8.778;2023-01-26T07:28:08;16.87;;;9.07;;
24677;SDS011;12800;53.094;8.778;2023-01-26T07:30:34;18.47;;;9.83;;
24677;SDS011;12800;53.094;8.778;2023-01-26T07:33:00;18.83;;;10.27;;
24677;SDS011;12800;53.094;8.778;2023-01-26T07:35:26;15.00;;;8.83;;
24677;SDS011;12800;53.094;8.778;2023-01-26T07:37:53;17.07;;;9.60;;
24677;SDS011;12800;53.094;8.778;2023-01-26T07:40:19;17.20;;;9.57;;
24677;SDS011;12800;53.094;8.778;2023-01-26T07:42:45;18.80;;;9.00;;
24677;SDS011;12800;53.094;8.778;2023-01-26T07:45:11;17.77;;;9.57;;
24677;SDS011;12800;53.094;8.778;2023-01-26T07:47:36;19.13;;;10.10;;
24677;SDS011;12800;53.094;8.778;2023-01-26T07:50:02;16.07;;;8.50;;
24677;SDS011;12800;53.094;8.778;2023-01-26T07:52:29;17.87;;;8.27;;
24677;SDS011;12800;53.094;8.778;2023-01-26T07:54:55;13.57;;;7.53;;
24677;SDS011;12800;53.094;8.778;2023-01-26T07:57:21;14.90;;;7.83;;
24677;SDS011;12800;53.094;8.778;2023-01-26T07:59:46;18.37;;;8.63;;
24677;SDS011;12800;53.094;8.778;2023-01-26T08:02:12;14.97;;;7.93;;
24677;SDS011;12800;53.094;8.778;2023-01-26T08:04:37;14.30;;;7.87;;
24677;SDS011;12800;53.094;8.778;2023-01-26T08:07:03;14.87;;;7.50;;
24677;SDS011;12800;53.094;8.778;2023-01-26T08:09:28;15.00;;;8.17;;
24677;SDS011;12800;53.094;8.778;2023-01-26T08:11:57;17.23;;;7.43;;
24677;SDS011;12800;53.094;8.778;2023-01-26T08:14:23;15.73;;;8.07;;
24677;SDS011;12800;53.094;8.778;2023-01-26T08:16:49;14.43;;;7.93;;
24677;SDS011;12800;53.094;8.778;2023-01-26T08:19:14;14.80;;;7.13;;
24677;SDS011;12800;53.094;8.778;2023-01-26T08:21:40;14.27;;;7.57;;
24677;SDS011;12800;53.094;8.778;2023-01-26T08:24:05;14.17;;;7.63;;
24677;SDS011;12800;53.094;8.778;2023-01-26T08:26:31;13.80;;;7.57;;
24677;SDS011;12800;53.094;8.778;2023-01-26T08:28:57;15.57;;;8.57;;
24677;SDS011;12800;53.094;8.778;2023-01-26T08:31:23;13.83;;;7.30;;
24677;SDS011;12800;53.094;8.778;2023-01-26T08:33:49;18.37;;;8.67;;
24677;SDS011;12800;53.094;8.778;2023-01-26T08:36:16;14.67;;;8.47;;
24677;SDS011;12800;53.094;8.778;2023-01-26T08:38:43;15.33;;;7.83;;
24677;SDS011;12800;53.094;8.778;2023-01-26T08:41:09;13.77;;;8.30;;
24677;SDS011;12800;53.094;8.778;2023-01-26T08:43:35;15.43;;;9.00;;
24677;SDS011;12800;53.094;8.778;2023-01-26T08:46:01;18.40;;;9.17;;
24677;SDS011;12800;53.094;8.778;2023-01-26T08:48:27;16.47;;;8.90;;
24677;SDS011;12800;53.094;8.778;2023-01-26T08:50:55;13.60;;;8.17;;
24677;SDS011;12800;53.094;8.778;2023-01-26T08:53:22;17.47;;;9.20;;
24677;SDS011;12800;53.094;8.778;2023-01-26T08:55:48;17.43;;;8.90;;
24677;SDS011;12800;53.094;8.778;2023-01-26T08:58:14;15.80;;;8.10;;
24677;SDS011;12800;53.094;8.778;2023-01-26T09:00:40;14.77;;;8.87;;
24677;SDS011;12800;53.094;8.778;2023-01-26T09:03:06;17.57;;;8.53;;
24677;SDS011;12800;53.094;8.778;2023-01-26T09:05:36;17.20;;;9.03;;
24677;SDS011;12800;53.094;8.778;2023-01-26T09:08:04;14.83;;;8.03;;
24677;SDS011;12800;53.094;8.778;2023-01-26T09:10:31;15.53;;;7.93;;
24677;SDS011;12800;53.094;8.778;2023-01-26T09:12:57;20.43;;;10.10;;
24677;SDS011;12800;53.094;8.778;2023-01-26T09:15:24;18.83;;;8.97;;
24677;SDS011;12800;53.094;8.778;2023-01-26T09:17:50;18.13;;;8.97;;
24677;SDS011;12800;53.094;8.778;2023-01-26T09:20:16;18.37;;;9.47;;
24677;SDS011;12800;53.094;8.778;2023-01-26T09:22:42;21.53;;;9.17;;
24677;SDS011;12800;53.094;8.778;2023-01-26T09:25:08;21.73;;;9.60;;
24677;SDS011;12800;53.094;8.778;2023-01-26T09:27:34;18.37;;;8.90;;
24677;SDS011;12800;53.094;8.778;2023-01-26T09:30:00;17.37;;;9.17;;
24677;SDS011;12800;53.094;8.778;2023-01-26T09:32:26;21.93;;;10.17;;
24677;SDS011;12800;53.094;8.778;2023-01-26T09:34:51;18.17;;;9.67;;
24677;SDS011;12800;53.094;8.778;2023-01-26T09:37:17;20.43;;;10.20;;
24677;SDS011;12800;53.094;8.778;2023-01-26T09:39:43;23.40;;;10.23;;
24677;SDS011;12800;53.094;8.778;2023-01-26T09:44:51;22.97;;;10.40;;
24677;SDS011;12800;53.094;8.778;2023-01-26T09:50:14;26.03;;;10.60;;
24677;SDS011;12800;53.094;8.778;2023-01-26T09:55:19;27.20;;;11.90;;
24677;SDS011;12800;53.094;8.778;2023-01-26T09:57:50;31.07;;;13.23;;
24677;SDS011;12800;53.094;8.778;2023-01-26T10:03:00;24.67;;;12.07;;
24677;SDS011;12800;53.094;8.778;2023-01-26T10:08:14;27.93;;;12.97;;
24677;SDS011;12800;53.094;8.778;2023-01-26T10:10:52;36.50;;;14.53;;
24677;SDS011;12800;53.094;8.778;2023-01-26T10:13:21;34.43;;;13.50;;
24677;SDS011;12800;53.094;8.778;2023-01-26T10:16:06;33.90;;;13.33;;
24677;SDS011;12800;53.094;8.778;2023-01-26T10:18:36;32.13;;;13.23;;
24677;SDS011;12800;53.094;8.778;2023-01-26T10:21:14;34.87;;;13.43;;
24677;SDS011;12800;53.094;8.778;2023-01-26T10:23:46;27.77;;;12.50;;
24677;SDS011;12800;53.094;8.778;2023-01-26T10:28:44;34.00;;;13.23;;
24677;SDS011;12800;53.094;8.778;2023-01-26T10:31:13;35.57;;;12.90;;
24677;SDS011;12800;53.094;8.778;2023-01-26T10:33:42;33.13;;;13.93;;
24677;SDS011;12800;53.094;8.778;2023-01-26T10:36:30;31.47;;;13.80;;
24677;SDS011;12800;53.094;8.778;2023-01-26T10:39:06;33.33;;;12.40;;
24677;SDS011;12800;53.094;8.778;2023-01-26T10:41:33;28.03;;;13.67;;
24677;SDS011;12800;53.094;8.778;2023-01-26T10:46:44;36.77;;;14.87;;
24677;SDS011;12800;53.094;8.778;2023-01-26T10:51:39;38.07;;;13.00;;
24677;SDS011;12800;53.094;8.778;2023-01-26T10:54:22;37.83;;;15.30;;
24677;SDS011;12800;53.094;8.778;2023-01-26T10:56:56;37.77;;;15.50;;
24677;SDS011;12800;53.094;8.778;2023-01-26T11:04:35;53.70;;;24.20;;
24677;SDS011;12800;53.094;8.778;2023-01-26T11:09:56;35.03;;;14.90;;
24677;SDS011;12800;53.094;8.778;2023-01-26T11:12:23;39.27;;;16.17;;
24677;SDS011;12800;53.094;8.778;2023-01-26T11:14:59;48.70;;;16.00;;
24677;SDS011;12800;53.094;8.778;2023-01-26T11:17:38;43.93;;;16.33;;
24677;SDS011;12800;53.094;8.778;2023-01-26T11:20:19;44.77;;;16.33;;
24677;SDS011;12800;53.094;8.778;2023-01-26T11:23:04;39.63;;;15.20;;
24677;SDS011;12800;53.094;8.778;2023-01-26T11:33:45;45.90;;;16.73;;
24677;SDS011;12800;53.094;8.778;2023-01-26T11:42:49;53.30;;;18.63;;
24677;SDS011;12800;53.094;8.778;2023-01-26T11:45:50;51.80;;;17.20;;
24677;SDS011;12800;53.094;8.778;2023-01-26T11:48:25;41.63;;;15.40;;
24677;SDS011;12800;53.094;8.778;2023-01-26T11:51:06;43.40;;;16.77;;
24677;SDS011;12800;53.094;8.778;2023-01-26T11:59:32;36.87;;;13.40;;
24677;SDS011;12800;53.094;8.778;2023-01-26T12:02:22;41.57;;;15.93;;
24677;SDS011;12800;53.094;8.778;2023-01-26T12:04:49;42.30;;;16.97;;
24677;SDS011;12800;53.094;8.778;2023-01-26T12:07:26;48.50;;;18.53;;
24677;SDS011;12800;53.094;8.778;2023-01-26T12:09:58;49.13;;;17.10;;
24677;SDS011;12800;53.094;8.778;2023-01-26T12:12:36;44.70;;;17.77;;
24677;SDS011;12800;53.094;8.778;2023-01-26T12:15:11;47.17;;;17.30;;
24677;SDS011;12800;53.094;8.778;2023-01-26T12:17:57;36.33;;;13.73;;
24677;SDS011;12800;53.094;8.778;2023-01-26T12:23:16;44.77;;;17.73;;
24677;SDS011;12800;53.094;8.778;2023-01-26T12:25:51;37.67;;;16.00;;
24677;SDS011;12800;53.094;8.778;2023-01-26T12:28:33;43.17;;;16.30;;
24677;SDS011;12800;53.094;8.778;2023-01-26T12:31:12;59.03;;;26.90;;
24677;SDS011;12800;53.094;8.778;2023-01-26T12:33:53;45.97;;;18.07;;
24677;SDS011;12800;53.094;8.778;2023-01-26T12:39:32;41.03;;;14.67;;
24677;SDS011;12800;53.094;8.778;2023-01-26T12:44:52;39.50;;;15.80;;
24677;SDS011;12800;53.094;8.778;2023-01-26T12:47:38;34.80;;;13.53;;
24677;SDS011;12800;53.094;8.778;2023-01-26T12:52:56;36.10;;;13.17;;
24677;SDS011;12800;53.094;8.778;2023-01-26T12:55:43;48.67;;;16.63;;
24677;SDS011;12800;53.094;8.778;2023-01-26T12:58:29;32.57;;;13.27;;
24677;SDS011;12800;53.094;8.778;2023-01-26T13:00:59;36.70;;;11.37;;
24677;SDS011;12800;53.094;8.778;2023-01-26T13:03:30;30.43;;;9.17;;
24677;SDS011;12800;53.094;8.778;2023-01-26T13:11:02;37.47;;;13.50;;
24677;SDS011;12800;53.094;8.778;2023-01-26T13:18:55;27.10;;;8.73;;
24677;SDS011;12800;53.094;8.778;2023-01-26T13:21:40;19.73;;;7.03;;
24677;SDS011;12800;53.094;8.778;2023-01-26T13:26:56;25.97;;;8.67;;
24677;SDS011;12800;53.094;8.778;2023-01-26T13:29:27;39.63;;;13.07;;
24677;SDS011;12800;53.094;8.778;2023-01-26T13:31:57;28.27;;;10.90;;
24677;SDS011;12800;53.094;8.778;2023-01-26T13:34:47;26.07;;;8.60;;
24677;SDS011;12800;53.094;8.778;2023-01-26T13:40:23;29.90;;;9.13;;
24677;SDS011;12800;53.094;8.778;2023-01-26T13:45:43;13.33;;;5.93;;
24677;SDS011;12800;53.094;8.778;2023-01-26T13:51:05;19.70;;;6.87;;
24677;SDS011;12800;53.094;8.778;2023-01-26T13:56:06;21.23;;;6.53;;
24677;SDS011;12800;53.094;8.778;2023-01-26T13:58:46;19.63;;;6.83;;
24677;SDS011;12800;53.094;8.778;2023-01-26T14:01:12;21.43;;;6.33;;
24677;SDS011;12800;53.094;8.778;2023-01-26T14:03:39;27.03;;;8.53;;
24677;SDS011;12800;53.094;8.778;2023-01-26T14:06:25;16.70;;;8.77;;
24677;SDS011;12800;53.094;8.778;2023-01-26T14:08:51;19.27;;;8.10;;
24677;SDS011;12800;53.094;8.778;2023-01-26T14:11:22;20.30;;;7.67;;
24677;SDS011;12800;53.094;8.778;2023-01-26T14:13:52;24.60;;;11.53;;
24677;SDS011;12800;53.094;8.778;2023-01-26T14:16:21;17.00;;;8.77;;
24677;SDS011;12800;53.094;8.778;2023-01-26T14:18:49;16.57;;;6.70;;
24677;SDS011;12800;53.094;8.778;2023-01-26T14:21:21;19.43;;;7.50;;
24677;SDS011;12800;53.094;8.778;2023-01-26T14:23:54;19.47;;;7.90;;
24677;SDS011;12800;53.094;8.778;2023-01-26T14:26:27;20.50;;;8.50;;
24677;SDS011;12800;53.094;8.778;2023-01-26T14:28:57;23.13;;;8.33;;
24677;SDS011;12800;53.094;8.778;2023-01-26T14:31:27;27.40;;;11.10;;
24677;SDS011;12800;53.094;8.778;2023-01-26T14:33:54;32.83;;;12.63;;
24677;SDS011;12800;53.094;8.778;2023-01-26T14:36:26;22.90;;;9.73;;
24677;SDS011;12800;53.094;8.778;2023-01-26T14:38:56;38.27;;;14.23;;
24677;SDS011;12800;53.094;8.778;2023-01-26T14:41:23;24.27;;;9.47;;
24677;SDS011;12800;53.094;8.778;2023-01-26T14:43:51;28.67;;;9.63;;
24677;SDS011;12800;53.094;8.778;2023-01-26T14:47:03;24.63;;;9.13;;
24677;SDS011;12800;53.094;8.778;2023-01-26T14:49:44;17.37;;;5.30;;
24677;SDS011;12800;53.094;8.778;2023-01-26T14:52:27;14.10;;;5.63;;
24677;SDS011;12800;53.094;8.778;2023-01-26T14:54:58;12.90;;;3.83;;
24677;SDS011;12800;53.094;8.778;2023-01-26T14:57:49;21.50;;;3.93;;
24677;SDS011;12800;53.094;8.778;2023-01-26T15:00:21;15.80;;;3.23;;
24677;SDS011;12800;53.094;8.778;2023-01-26T15:02:47;11.07;;;3.53;;
24677;SDS011;12800;53.094;8.778;2023-01-26T15:05:17;11.00;;;2.93;;
24677;SDS011;12800;53.094;8.778;2023-01-26T15:07:48;14.60;;;2.80;;
24677;SDS011;12800;53.094;8.778;2023-01-26T15:10:26;17.17;;;3.20;;
24677;SDS011;12800;53.094;8.778;2023-01-26T15:13:03;10.23;;;1.90;;
24677;SDS011;12800;53.094;8.778;2023-01-26T15:15:30;8.03;;;2.73;;
24677;SDS011;12800;53.094;8.778;2023-01-26T15:20:54;13.73;;;2.47;;
24677;SDS011;12800;53.094;8.778;2023-01-26T15:25:52;12.23;;;2.50;;
24677;SDS011;12800;53.094;8.778;2023-01-26T15:28:20;8.40;;;2.43;;
24677;SDS011;12800;53.094;8.778;2023-01-26T15:30:50;10.20;;;2.07;;
24677;SDS011;12800;53.094;8.778;2023-01-26T15:39:11;25.23;;;10.23;;
24677;SDS011;12800;53.094;8.778;2023-01-26T15:41:42;5.63;;;1.57;;
24677;SDS011;12800;53.094;8.778;2023-01-26T15:44:14;8.47;;;1.83;;
24677;SDS011;12800;53.094;8.778;2023-01-26T15:46:41;9.57;;;1.83;;
24677;SDS011;12800;53.094;8.778;2023-01-26T15:49:07;7.87;;;1.53;;
24677;SDS011;12800;53.094;8.778;2023-01-26T15:51:34;4.90;;;1.60;;
24677;SDS011;12800;53.094;8.778;2023-01-26T15:54:00;5.17;;;1.70;;
24677;SDS011;12800;53.094;8.778;2023-01-26T15:56:26;4.57;;;1.37;;
24677;SDS011;12800;53.094;8.778;2023-01-26T15:58:51;6.97;;;1.53;;
24677;SDS011;12800;53.094;8.778;2023-01-26T16:01:19;6.40;;;1.40;;
24677;SDS011;12800;53.094;8.778;2023-01-26T16:03:46;8.17;;;1.27;;
24677;SDS011;12800;53.094;8.778;2023-01-26T16:06:33;5.93;;;1.53;;
24677;SDS011;12800;53.094;8.778;2023-01-26T16:08:58;7.43;;;1.73;;
24677;SDS011;12800;53.094;8.778;2023-01-26T16:11:28;7.93;;;1.63;;
24677;SDS011;12800;53.094;8.778;2023-01-26T16:13:57;11.77;;;2.30;;
24677;SDS011;12800;53.094;8.778;2023-01-26T16:16:23;9.23;;;1.83;;
24677;SDS011;12800;53.094;8.778;2023-01-26T16:18:52;8.13;;;1.57;;
24677;SDS011;12800;53.094;8.778;2023-01-26T16:23:48;3.77;;;1.23;;
24677;SDS011;12800;53.094;8.778;2023-01-26T16:26:14;6.37;;;1.93;;